sensor_id;sensor_type;location;lat;lon;timestamp;temperature;humidity
18191;DHT22;47004;51.366;12.348;2022-10-26T00:01:25;10.00;99.90
18191;DHT22;47004;51.366;12.348;2022-10-26T00:03:27;10.00;99.90
18191;DHT22;47004;51.366;12.348;2022-10-26T00:05:31;10.00;99.90
18191;DHT22;47004;51.366;12.348;2022-10-26T00:07:33;10.00;99.90
18191;DHT22;47004;51.366;12.348;2022-10-26T00:09:35;10.00;99.90
18191;DHT22;47004;51.366;12.348;2022-10-26T00:11:40;9.90;99.90
18191;DHT22;47004;51.366;12.348;2022-10-26T00:13:44;9.90;99.90
18191;DHT22;47004;51.366;12.348;2022-10-26T00:15:46;9.90;99.90
18191;DHT22;47004;51.366;12.348;2022-10-26T00:17:49;9.90;99.90
18191;DHT22;47004;51.366;12.348;2022-10-26T00:19:51;9.90;99.90
18191;DHT22;47004;51.366;12.348;2022-10-26T00:21:54;9.90;99.90
18191;DHT22;47004;51.366;12.348;2022-10-26T00:23:58;9.90;99.90
18191;DHT22;47004;51.366;12.348;2022-10-26T00:25:59;9.80;99.90
18191;DHT22;47004;51.366;12.348;2022-10-26T00:28:01;9.80;99.90
18191;DHT22;47004;51.366;12.348;2022-10-26T00:30:06;9.80;99.90
18191;DHT22;47004;51.366;12.348;2022-10-26T00:32:08;9.80;99.90
18191;DHT22;47004;51.366;12.348;2022-10-26T00:34:10;9.80;99.90
18191;DHT22;47004;51.366;12.348;2022-10-26T00:36:12;9.80;99.90
18191;DHT22;47004;51.366;12.348;2022-10-26T00:38:16;9.80;99.90
18191;DHT22;47004;51.366;12.348;2022-10-26T00:40:17;9.70;99.90
18191;DHT22;47004;51.366;12.348;2022-10-26T00:42:21;9.70;99.90
18191;DHT22;47004;51.366;12.348;2022-10-26T00:47:08;9.70;99.90
18191;DHT22;47004;51.366;12.348;2022-10-26T00:49:12;9.70;99.90
18191;DHT22;47004;51.366;12.348;2022-10-26T00:51:21;9.70;99.90
18191;DHT22;47004;51.366;12.348;2022-10-26T00:53:25;9.60;99.90
18191;DHT22;47004;51.366;12.348;2022-10-26T00:55:31;9.70;99.90
18191;DHT22;47004;51.366;12.348;2022-10-26T00:57:34;9.70;99.90
18191;DHT22;47004;51.366;12.348;2022-10-26T00:59:38;9.60;99.90
18191;DHT22;47004;51.366;12.348;2022-10-26T01:01:43;9.60;99.90
18191;DHT22;47004;51.366;12.348;2022-10-26T01:03:46;9.60;99.90
18191;DHT22;47004;51.366;12.348;2022-10-26T01:05:49;9.60;99.90
18191;DHT22;47004;51.366;12.348;2022-10-26T01:07:53;9.50;99.90
18191;DHT22;47004;51.366;12.348;2022-10-26T01:09:56;9.60;99.90
18191;DHT22;47004;51.366;12.348;2022-10-26T01:11:58;9.60;99.90
18191;DHT22;47004;51.366;12.348;2022-10-26T01:14:02;9.60;99.90
18191;DHT22;47004;51.366;12.348;2022-10-26T01:16:19;9.50;99.90
18191;DHT22;47004;51.366;12.348;2022-10-26T01:18:30;9.50;99.90
18191;DHT22;47004;51.366;12.348;2022-10-26T01:23:15;9.50;99.90
18191;DHT22;47004;51.366;12.348;2022-10-26T01:25:34;9.50;99.90
18191;DHT22;47004;51.366;12.348;2022-10-26T01:27:40;9.40;99.90
18191;DHT22;47004;51.366;12.348;2022-10-26T01:30:16;9.40;99.90
18191;DHT22;47004;51.366;12.348;2022-10-26T01:32:22;9.40;99.90
18191;DHT22;47004;51.366;12.348;2022-10-26T01:34:31;9.40;99.90
18191;DHT22;47004;51.366;12.348;2022-10-26T01:36:40;9.40;99.90
18191;DHT22;47004;51.366;12.348;2022-10-26T01:38:51;9.50;99.90
18191;DHT22;47004;51.366;12.348;2022-10-26T01:41:00;9.40;99.90
18191;DHT22;47004;51.366;12.348;2022-10-26T01:43:08;9.30;99.90
18191;DHT22;47004;51.366;12.348;2022-10-26T01:45:14;9.30;99.90
18191;DHT22;47004;51.366;12.348;2022-10-26T01:47:20;9.30;99.90
18191;DHT22;47004;51.366;12.348;2022-10-26T01:49:27;9.30;99.90
18191;DHT22;47004;51.366;12.348;2022-10-26T01:51:31;9.40;99.90
18191;DHT22;47004;51.366;12.348;2022-10-26T01:53:33;9.30;99.90
18191;DHT22;47004;51.366;12.348;2022-10-26T01:55:46;9.30;99.90
18191;DHT22;47004;51.366;12.348;2022-10-26T01:57:50;9.20;99.90
18191;DHT22;47004;51.366;12.348;2022-10-26T02:00:04;9.20;99.90
18191;DHT22;47004;51.366;12.348;2022-10-26T02:02:35;9.20;99.90
18191;DHT22;47004;51.366;12.348;2022-10-26T02:04:47;9.20;99.90
18191;DHT22;47004;51.366;12.348;2022-10-26T02:06:58;9.20;99.90
18191;DHT22;47004;51.366;12.348;2022-10-26T02:09:09;9.20;99.90
18191;DHT22;47004;51.366;12.348;2022-10-26T02:11:23;9.20;99.90
18191;DHT22;47004;51.366;12.348;2022-10-26T02:13:32;9.20;99.90
18191;DHT22;47004;51.366;12.348;2022-10-26T02:15:40;9.10;99.90
18191;DHT22;47004;51.366;12.348;2022-10-26T02:17:49;9.10;99.90
18191;DHT22;47004;51.366;12.348;2022-10-26T02:19:55;9.20;99.90
18191;DHT22;47004;51.366;12.348;2022-10-26T02:22:03;9.10;99.90
18191;DHT22;47004;51.366;12.348;2022-10-26T02:24:09;9.10;99.90
18191;DHT22;47004;51.366;12.348;2022-10-26T02:26:13;9.10;99.90
18191;DHT22;47004;51.366;12.348;2022-10-26T02:28:18;9.10;99.90
18191;DHT22;47004;51.366;12.348;2022-10-26T02:30:22;9.10;99.90
18191;DHT22;47004;51.366;12.348;2022-10-26T02:32:26;9.10;99.90
18191;DHT22;47004;51.366;12.348;2022-10-26T02:34:31;9.00;99.90
18191;DHT22;47004;51.366;12.348;2022-10-26T02:36:35;9.00;99.90
18191;DHT22;47004;51.366;12.348;2022-10-26T02:38:40;9.00;99.90
18191;DHT22;47004;51.366;12.348;2022-10-26T02:40:44;9.00;99.90
18191;DHT22;47004;51.366;12.348;2022-10-26T02:42:47;9.00;99.90
18191;DHT22;47004;51.366;12.348;2022-10-26T02:44:53;9.00;99.90
18191;DHT22;47004;51.366;12.348;2022-10-26T02:46:57;9.00;99.90
18191;DHT22;47004;51.366;12.348;2022-10-26T02:49:00;9.00;99.90
18191;DHT22;47004;51.366;12.348;2022-10-26T02:51:09;9.00;99.90
18191;DHT22;47004;51.366;12.348;2022-10-26T02:53:16;9.00;99.90
18191;DHT22;47004;51.366;12.348;2022-10-26T02:55:26;9.00;99.90
18191;DHT22;47004;51.366;12.348;2022-10-26T02:57:33;9.00;99.90
18191;DHT22;47004;51.366;12.348;2022-10-26T02:59:42;9.00;99.90
18191;DHT22;47004;51.366;12.348;2022-10-26T03:01:47;8.90;99.90
18191;DHT22;47004;51.366;12.348;2022-10-26T03:03:51;8.90;99.90
18191;DHT22;47004;51.366;12.348;2022-10-26T03:05:57;8.90;99.90
18191;DHT22;47004;51.366;12.348;2022-10-26T03:08:00;9.00;99.90
18191;DHT22;47004;51.366;12.348;2022-10-26T03:10:04;8.90;99.90
18191;DHT22;47004;51.366;12.348;2022-10-26T03:12:06;8.90;99.90
18191;DHT22;47004;51.366;12.348;2022-10-26T03:14:08;8.90;99.90
18191;DHT22;47004;51.366;12.348;2022-10-26T03:16:10;8.80;99.90
18191;DHT22;47004;51.366;12.348;2022-10-26T03:18:12;8.90;99.90
18191;DHT22;47004;51.366;12.348;2022-10-26T03:20:15;8.90;99.90
18191;DHT22;47004;51.366;12.348;2022-10-26T03:22:17;8.80;99.90
18191;DHT22;47004;51.366;12.348;2022-10-26T03:24:20;8.80;99.90
18191;DHT22;47004;51.366;12.348;2022-10-26T03:26:22;8.80;99.90
18191;DHT22;47004;51.366;12.348;2022-10-26T03:28:24;8.80;99.90
18191;DHT22;47004;51.366;12.348;2022-10-26T03:30:27;8.90;99.90
18191;DHT22;47004;51.366;12.348;2022-10-26T03:32:31;8.80;99.90
18191;DHT22;47004;51.366;12.348;2022-10-26T03:34:33;9.20;99.90
18191;DHT22;47004;51.366;12.348;2022-10-26T03:36:35;8.80;99.90
18191;DHT22;47004;51.366;12.348;2022-10-26T03:38:37;8.80;99.90
18191;DHT22;47004;51.366;12.348;2022-10-26T03:40:41;8.80;99.90
18191;DHT22;47004;51.366;12.348;2022-10-26T03:42:43;8.80;99.90
18191;DHT22;47004;51.366;12.348;2022-10-26T03:44:45;8.80;99.90
18191;DHT22;47004;51.366;12.348;2022-10-26T03:46:47;8.80;99.90
18191;DHT22;47004;51.366;12.348;2022-10-26T03:48:49;8.80;99.90
18191;DHT22;47004;51.366;12.348;2022-10-26T03:50:51;8.80;99.90
18191;DHT22;47004;51.366;12.348;2022-10-26T03:52:53;8.70;99.90
18191;DHT22;47004;51.366;12.348;2022-10-26T03:54:55;8.70;99.90
18191;DHT22;47004;51.366;12.348;2022-10-26T03:56:58;8.70;99.90
18191;DHT22;47004;51.366;12.348;2022-10-26T03:59:00;9.10;99.90
18191;DHT22;47004;51.366;12.348;2022-10-26T04:01:03;8.70;99.90
18191;DHT22;47004;51.366;12.348;2022-10-26T04:03:05;8.70;99.90
18191;DHT22;47004;51.366;12.348;2022-10-26T04:05:08;8.70;99.90
18191;DHT22;47004;51.366;12.348;2022-10-26T04:07:10;8.70;99.90
18191;DHT22;47004;51.366;12.348;2022-10-26T04:09:11;8.70;99.90
18191;DHT22;47004;51.366;12.348;2022-10-26T04:11:13;8.70;99.90
18191;DHT22;47004;51.366;12.348;2022-10-26T04:13:17;8.70;99.90
18191;DHT22;47004;51.366;12.348;2022-10-26T04:15:19;8.70;99.90
18191;DHT22;47004;51.366;12.348;2022-10-26T04:17:21;8.70;99.90
18191;DHT22;47004;51.366;12.348;2022-10-26T04:19:23;8.70;99.90
18191;DHT22;47004;51.366;12.348;2022-10-26T04:21:25;8.70;99.90
18191;DHT22;47004;51.366;12.348;2022-10-26T04:23:26;8.70;99.90
18191;DHT22;47004;51.366;12.348;2022-10-26T04:25:29;8.70;99.90
18191;DHT22;47004;51.366;12.348;2022-10-26T04:27:33;8.70;99.90
18191;DHT22;47004;51.366;12.348;2022-10-26T04:29:37;8.70;99.90
18191;DHT22;47004;51.366;12.348;2022-10-26T04:31:39;8.70;99.90
18191;DHT22;47004;51.366;12.348;2022-10-26T04:33:41;8.70;99.90
18191;DHT22;47004;51.366;12.348;2022-10-26T04:35:43;8.60;99.90
18191;DHT22;47004;51.366;12.348;2022-10-26T04:37:45;8.70;99.90
18191;DHT22;47004;51.366;12.348;2022-10-26T04:39:47;8.70;99.90
18191;DHT22;47004;51.366;12.348;2022-10-26T04:41:49;8.70;99.90
18191;DHT22;47004;51.366;12.348;2022-10-26T04:43:51;8.70;99.90
18191;DHT22;47004;51.366;12.348;2022-10-26T04:45:55;8.70;99.90
18191;DHT22;47004;51.366;12.348;2022-10-26T04:48:01;8.70;99.90
18191;DHT22;47004;51.366;12.348;2022-10-26T04:50:04;8.70;99.90
18191;DHT22;47004;51.366;12.348;2022-10-26T04:52:07;8.70;99.90
18191;DHT22;47004;51.366;12.348;2022-10-26T04:54:08;8.70;99.90
18191;DHT22;47004;51.366;12.348;2022-10-26T04:56:13;8.70;99.90
18191;DHT22;47004;51.366;12.348;2022-10-26T04:58:15;8.70;99.90
18191;DHT22;47004;51.366;12.348;2022-10-26T05:00:17;8.70;99.90
18191;DHT22;47004;51.366;12.348;2022-10-26T05:02:20;8.80;99.90
18191;DHT22;47004;51.366;12.348;2022-10-26T05:04:22;8.80;99.90
18191;DHT22;47004;51.366;12.348;2022-10-26T05:06:24;9.10;99.90
18191;DHT22;47004;51.366;12.348;2022-10-26T05:08:27;8.80;99.90
18191;DHT22;47004;51.366;12.348;2022-10-26T05:10:29;8.90;99.90
18191;DHT22;47004;51.366;12.348;2022-10-26T05:12:31;8.80;99.90
18191;DHT22;47004;51.366;12.348;2022-10-26T05:14:33;8.80;99.90
18191;DHT22;47004;51.366;12.348;2022-10-26T05:16:35;8.80;99.90
18191;DHT22;47004;51.366;12.348;2022-10-26T05:18:38;8.80;99.90
18191;DHT22;47004;51.366;12.348;2022-10-26T05:20:39;8.80;99.90
18191;DHT22;47004;51.366;12.348;2022-10-26T05:22:41;8.80;99.90
18191;DHT22;47004;51.366;12.348;2022-10-26T05:24:43;8.80;99.90
18191;DHT22;47004;51.366;12.348;2022-10-26T05:26:45;8.80;99.90
18191;DHT22;47004;51.366;12.348;2022-10-26T05:28:47;8.80;99.90
18191;DHT22;47004;51.366;12.348;2022-10-26T05:30:48;8.80;99.90
18191;DHT22;47004;51.366;12.348;2022-10-26T05:32:53;9.00;99.90
18191;DHT22;47004;51.366;12.348;2022-10-26T05:34:56;8.80;99.90
18191;DHT22;47004;51.366;12.348;2022-10-26T05:36:58;8.70;99.90
18191;DHT22;47004;51.366;12.348;2022-10-26T05:38:59;8.80;99.90
18191;DHT22;47004;51.366;12.348;2022-10-26T05:41:01;8.80;99.90
18191;DHT22;47004;51.366;12.348;2022-10-26T05:43:03;8.80;99.90
18191;DHT22;47004;51.366;12.348;2022-10-26T05:45:06;8.80;99.90
18191;DHT22;47004;51.366;12.348;2022-10-26T05:47:08;8.80;99.90
18191;DHT22;47004;51.366;12.348;2022-10-26T05:49:09;8.80;99.90
18191;DHT22;47004;51.366;12.348;2022-10-26T05:51:12;8.80;99.90
18191;DHT22;47004;51.366;12.348;2022-10-26T05:53:15;8.80;99.90
18191;DHT22;47004;51.366;12.348;2022-10-26T05:55:18;8.80;99.90
18191;DHT22;47004;51.366;12.348;2022-10-26T05:57:20;8.80;99.90
18191;DHT22;47004;51.366;12.348;2022-10-26T05:59:23;8.90;99.90
18191;DHT22;47004;51.366;12.348;2022-10-26T06:01:31;8.90;99.90
18191;DHT22;47004;51.366;12.348;2022-10-26T06:03:44;8.90;99.90
18191;DHT22;47004;51.366;12.348;2022-10-26T06:05:52;8.90;99.90
18191;DHT22;47004;51.366;12.348;2022-10-26T06:07:56;8.90;99.90
18191;DHT22;47004;51.366;12.348;2022-10-26T06:09:58;8.90;99.90
18191;DHT22;47004;51.366;12.348;2022-10-26T06:12:00;9.00;99.90
18191;DHT22;47004;51.366;12.348;2022-10-26T06:14:05;9.30;99.90
18191;DHT22;47004;51.366;12.348;2022-10-26T06:16:20;9.00;99.90
18191;DHT22;47004;51.366;12.348;2022-10-26T06:18:29;9.00;99.90
18191;DHT22;47004;51.366;12.348;2022-10-26T06:20:46;9.00;99.90
18191;DHT22;47004;51.366;12.348;2022-10-26T06:23:02;9.00;99.90
18191;DHT22;47004;51.366;12.348;2022-10-26T06:25:15;9.00;99.90
18191;DHT22;47004;51.366;12.348;2022-10-26T06:27:26;9.00;99.90
18191;DHT22;47004;51.366;12.348;2022-10-26T06:29:39;9.00;99.90
18191;DHT22;47004;51.366;12.348;2022-10-26T06:31:43;9.20;99.90
18191;DHT22;47004;51.366;12.348;2022-10-26T06:33:45;9.10;99.90
18191;DHT22;47004;51.366;12.348;2022-10-26T06:35:53;9.10;99.90
18191;DHT22;47004;51.366;12.348;2022-10-26T06:38:03;9.70;99.90
18191;DHT22;47004;51.366;12.348;2022-10-26T06:40:07;9.20;99.90
18191;DHT22;47004;51.366;12.348;2022-10-26T06:42:09;9.20;99.90
18191;DHT22;47004;51.366;12.348;2022-10-26T06:44:20;9.30;99.90
18191;DHT22;47004;51.366;12.348;2022-10-26T06:46:34;9.30;99.90
18191;DHT22;47004;51.366;12.348;2022-10-26T06:48:46;9.30;99.90
18191;DHT22;47004;51.366;12.348;2022-10-26T06:50:51;9.30;99.90
18191;DHT22;47004;51.366;12.348;2022-10-26T06:53:00;9.30;99.90
18191;DHT22;47004;51.366;12.348;2022-10-26T06:55:11;9.40;99.90
18191;DHT22;47004;51.366;12.348;2022-10-26T06:57:15;9.40;99.90
18191;DHT22;47004;51.366;12.348;2022-10-26T06:59:27;9.40;99.90
18191;DHT22;47004;51.366;12.348;2022-10-26T07:01:31;9.50;99.90
18191;DHT22;47004;51.366;12.348;2022-10-26T07:03:32;9.60;99.90
18191;DHT22;47004;51.366;12.348;2022-10-26T07:05:34;9.50;99.90
18191;DHT22;47004;51.366;12.348;2022-10-26T07:07:40;9.60;99.90
18191;DHT22;47004;51.366;12.348;2022-10-26T07:09:42;9.60;99.90
18191;DHT22;47004;51.366;12.348;2022-10-26T07:11:46;9.60;99.90
18191;DHT22;47004;51.366;12.348;2022-10-26T07:13:47;9.70;99.90
18191;DHT22;47004;51.366;12.348;2022-10-26T07:15:51;9.70;99.90
18191;DHT22;47004;51.366;12.348;2022-10-26T07:17:53;9.70;99.90
18191;DHT22;47004;51.366;12.348;2022-10-26T07:19:55;9.80;99.90
18191;DHT22;47004;51.366;12.348;2022-10-26T07:21:57;9.80;99.90
18191;DHT22;47004;51.366;12.348;2022-10-26T07:23:59;9.80;99.90
18191;DHT22;47004;51.366;12.348;2022-10-26T07:26:01;9.80;99.90
18191;DHT22;47004;51.366;12.348;2022-10-26T07:28:05;9.90;99.90
18191;DHT22;47004;51.366;12.348;2022-10-26T07:30:09;9.90;99.90
18191;DHT22;47004;51.366;12.348;2022-10-26T07:32:11;10.00;99.90
18191;DHT22;47004;51.366;12.348;2022-10-26T07:34:13;10.00;99.90
18191;DHT22;47004;51.366;12.348;2022-10-26T07:36:17;10.00;99.90
18191;DHT22;47004;51.366;12.348;2022-10-26T07:38:19;10.10;99.90
18191;DHT22;47004;51.366;12.348;2022-10-26T07:40:21;10.10;99.90
18191;DHT22;47004;51.366;12.348;2022-10-26T07:42:23;10.20;99.90
18191;DHT22;47004;51.366;12.348;2022-10-26T07:44:26;10.20;99.90
18191;DHT22;47004;51.366;12.348;2022-10-26T07:46:28;10.30;99.90
18191;DHT22;47004;51.366;12.348;2022-10-26T07:48:29;10.40;99.90
18191;DHT22;47004;51.366;12.348;2022-10-26T07:50:32;10.40;99.90
18191;DHT22;47004;51.366;12.348;2022-10-26T07:52:34;10.40;99.90
18191;DHT22;47004;51.366;12.348;2022-10-26T07:54:36;10.50;99.90
18191;DHT22;47004;51.366;12.348;2022-10-26T07:56:38;10.60;99.90
18191;DHT22;47004;51.366;12.348;2022-10-26T07:58:40;10.70;99.90
18191;DHT22;47004;51.366;12.348;2022-10-26T08:00:43;10.70;99.90
18191;DHT22;47004;51.366;12.348;2022-10-26T08:02:45;10.80;99.90
18191;DHT22;47004;51.366;12.348;2022-10-26T08:04:46;10.80;99.90
18191;DHT22;47004;51.366;12.348;2022-10-26T08:06:48;10.90;99.90
18191;DHT22;47004;51.366;12.348;2022-10-26T08:08:50;10.90;99.90
18191;DHT22;47004;51.366;12.348;2022-10-26T08:10:52;10.90;99.90
18191;DHT22;47004;51.366;12.348;2022-10-26T08:12:54;10.90;99.90
18191;DHT22;47004;51.366;12.348;2022-10-26T08:14:55;11.00;99.90
18191;DHT22;47004;51.366;12.348;2022-10-26T08:16:59;11.00;99.90
18191;DHT22;47004;51.366;12.348;2022-10-26T08:19:00;11.00;99.90
18191;DHT22;47004;51.366;12.348;2022-10-26T08:21:04;11.10;99.90
18191;DHT22;47004;51.366;12.348;2022-10-26T08:23:06;11.10;99.90
18191;DHT22;47004;51.366;12.348;2022-10-26T08:25:08;11.10;99.90
18191;DHT22;47004;51.366;12.348;2022-10-26T08:27:10;11.20;99.90
18191;DHT22;47004;51.366;12.348;2022-10-26T08:29:12;11.20;99.90
18191;DHT22;47004;51.366;12.348;2022-10-26T08:31:14;11.30;99.90
18191;DHT22;47004;51.366;12.348;2022-10-26T08:33:17;11.30;99.90
18191;DHT22;47004;51.366;12.348;2022-10-26T08:35:18;11.30;99.90
18191;DHT22;47004;51.366;12.348;2022-10-26T08:37:20;11.50;99.90
18191;DHT22;47004;51.366;12.348;2022-10-26T08:39:23;11.40;99.90
18191;DHT22;47004;51.366;12.348;2022-10-26T08:41:34;11.50;99.90
18191;DHT22;47004;51.366;12.348;2022-10-26T08:43:39;11.50;99.90
18191;DHT22;47004;51.366;12.348;2022-10-26T08:45:46;11.60;99.90
18191;DHT22;47004;51.366;12.348;2022-10-26T08:47:53;11.70;99.90
18191;DHT22;47004;51.366;12.348;2022-10-26T08:50:02;11.70;99.90
18191;DHT22;47004;51.366;12.348;2022-10-26T08:52:05;11.80;99.90
18191;DHT22;47004;51.366;12.348;2022-10-26T08:54:12;11.90;99.90
18191;DHT22;47004;51.366;12.348;2022-10-26T08:56:17;11.90;99.90
18191;DHT22;47004;51.366;12.348;2022-10-26T08:58:25;12.00;99.90
18191;DHT22;47004;51.366;12.348;2022-10-26T09:00:29;12.10;99.90
18191;DHT22;47004;51.366;12.348;2022-10-26T09:02:31;12.20;99.90
18191;DHT22;47004;51.366;12.348;2022-10-26T09:04:33;12.20;99.90
18191;DHT22;47004;51.366;12.348;2022-10-26T09:06:45;12.30;99.90
18191;DHT22;47004;51.366;12.348;2022-10-26T09:08:58;12.40;99.90
18191;DHT22;47004;51.366;12.348;2022-10-26T09:11:07;12.50;99.90
18191;DHT22;47004;51.366;12.348;2022-10-26T09:13:19;12.60;99.90
18191;DHT22;47004;51.366;12.348;2022-10-26T09:15:30;12.60;99.90
18191;DHT22;47004;51.366;12.348;2022-10-26T09:17:44;12.70;99.90
18191;DHT22;47004;51.366;12.348;2022-10-26T09:20:02;12.80;99.90
18191;DHT22;47004;51.366;12.348;2022-10-26T09:22:13;12.90;99.90
18191;DHT22;47004;51.366;12.348;2022-10-26T09:24:24;13.00;99.90
18191;DHT22;47004;51.366;12.348;2022-10-26T09:26:32;13.10;99.90
18191;DHT22;47004;51.366;12.348;2022-10-26T09:28:40;13.20;99.90
18191;DHT22;47004;51.366;12.348;2022-10-26T09:30:44;13.20;99.90
18191;DHT22;47004;51.366;12.348;2022-10-26T09:32:47;13.30;99.90
18191;DHT22;47004;51.366;12.348;2022-10-26T09:34:51;13.30;99.90
18191;DHT22;47004;51.366;12.348;2022-10-26T09:36:55;13.40;99.90
18191;DHT22;47004;51.366;12.348;2022-10-26T09:39:03;13.40;99.90
18191;DHT22;47004;51.366;12.348;2022-10-26T09:41:16;13.50;99.90
18191;DHT22;47004;51.366;12.348;2022-10-26T09:43:25;13.40;99.90
18191;DHT22;47004;51.366;12.348;2022-10-26T09:45:31;13.60;99.90
18191;DHT22;47004;51.366;12.348;2022-10-26T09:47:37;13.60;99.90
18191;DHT22;47004;51.366;12.348;2022-10-26T09:49:44;13.70;99.90
18191;DHT22;47004;51.366;12.348;2022-10-26T09:51:48;13.80;99.90
18191;DHT22;47004;51.366;12.348;2022-10-26T09:53:50;13.90;99.90
18191;DHT22;47004;51.366;12.348;2022-10-26T09:56:00;14.00;99.90
18191;DHT22;47004;51.366;12.348;2022-10-26T09:58:05;14.10;99.90
18191;DHT22;47004;51.366;12.348;2022-10-26T10:00:15;14.20;99.90
18191;DHT22;47004;51.366;12.348;2022-10-26T10:02:36;14.30;99.90
18191;DHT22;47004;51.366;12.348;2022-10-26T10:04:45;14.40;99.90
18191;DHT22;47004;51.366;12.348;2022-10-26T10:06:48;14.40;99.90
18191;DHT22;47004;51.366;12.348;2022-10-26T10:09:05;14.50;99.90
18191;DHT22;47004;51.366;12.348;2022-10-26T10:11:12;14.60;99.90
18191;DHT22;47004;51.366;12.348;2022-10-26T10:13:16;14.70;99.90
18191;DHT22;47004;51.366;12.348;2022-10-26T10:15:19;14.80;99.90
18191;DHT22;47004;51.366;12.348;2022-10-26T10:17:22;14.90;99.90
18191;DHT22;47004;51.366;12.348;2022-10-26T10:19:26;15.00;99.90
18191;DHT22;47004;51.366;12.348;2022-10-26T10:21:36;15.00;99.90
18191;DHT22;47004;51.366;12.348;2022-10-26T10:23:47;15.10;99.90
18191;DHT22;47004;51.366;12.348;2022-10-26T10:25:58;15.30;99.90
18191;DHT22;47004;51.366;12.348;2022-10-26T10:28:07;15.40;99.90
18191;DHT22;47004;51.366;12.348;2022-10-26T10:30:21;15.40;99.90
18191;DHT22;47004;51.366;12.348;2022-10-26T10:32:25;15.50;99.90
18191;DHT22;47004;51.366;12.348;2022-10-26T10:34:29;15.60;99.90
18191;DHT22;47004;51.366;12.348;2022-10-26T10:36:32;15.60;99.90
18191;DHT22;47004;51.366;12.348;2022-10-26T10:38:42;15.70;99.90
18191;DHT22;47004;51.366;12.348;2022-10-26T10:40:49;15.80;99.90
18191;DHT22;47004;51.366;12.348;2022-10-26T10:42:53;15.90;99.90
18191;DHT22;47004;51.366;12.348;2022-10-26T10:44:58;15.90;99.90
18191;DHT22;47004;51.366;12.348;2022-10-26T10:47:02;16.00;99.90
18191;DHT22;47004;51.366;12.348;2022-10-26T10:49:15;16.00;99.90
18191;DHT22;47004;51.366;12.348;2022-10-26T10:51:19;16.10;99.90
18191;DHT22;47004;51.366;12.348;2022-10-26T10:53:25;16.10;99.90
18191;DHT22;47004;51.366;12.348;2022-10-26T10:55:29;16.20;99.90
18191;DHT22;47004;51.366;12.348;2022-10-26T10:57:37;16.20;99.90
18191;DHT22;47004;51.366;12.348;2022-10-26T10:59:50;16.20;99.90
18191;DHT22;47004;51.366;12.348;2022-10-26T11:02:11;16.30;99.90
18191;DHT22;47004;51.366;12.348;2022-10-26T11:04:32;16.20;99.90
18191;DHT22;47004;51.366;12.348;2022-10-26T11:06:40;16.30;99.90
18191;DHT22;47004;51.366;12.348;2022-10-26T11:08:47;16.30;99.90
18191;DHT22;47004;51.366;12.348;2022-10-26T11:10:53;16.30;99.90
18191;DHT22;47004;51.366;12.348;2022-10-26T11:13:02;16.40;99.90
18191;DHT22;47004;51.366;12.348;2022-10-26T11:15:10;16.40;99.90
18191;DHT22;47004;51.366;12.348;2022-10-26T11:17:17;16.50;99.90
18191;DHT22;47004;51.366;12.348;2022-10-26T11:19:23;16.50;99.90
18191;DHT22;47004;51.366;12.348;2022-10-26T11:21:27;16.60;99.90
18191;DHT22;47004;51.366;12.348;2022-10-26T11:23:35;16.70;99.90
18191;DHT22;47004;51.366;12.348;2022-10-26T11:25:43;16.70;99.90
18191;DHT22;47004;51.366;12.348;2022-10-26T11:27:50;16.80;99.90
18191;DHT22;47004;51.366;12.348;2022-10-26T11:29:58;16.90;99.90
18191;DHT22;47004;51.366;12.348;2022-10-26T11:32:06;17.00;99.90
18191;DHT22;47004;51.366;12.348;2022-10-26T11:34:18;17.10;99.90
18191;DHT22;47004;51.366;12.348;2022-10-26T11:36:24;17.30;99.90
18191;DHT22;47004;51.366;12.348;2022-10-26T11:38:31;17.30;99.90
18191;DHT22;47004;51.366;12.348;2022-10-26T11:40:39;17.40;99.90
18191;DHT22;47004;51.366;12.348;2022-10-26T11:42:46;17.60;99.90
18191;DHT22;47004;51.366;12.348;2022-10-26T11:44:54;17.70;99.90
18191;DHT22;47004;51.366;12.348;2022-10-26T11:47:01;17.80;99.90
18191;DHT22;47004;51.366;12.348;2022-10-26T11:49:10;17.90;99.90
18191;DHT22;47004;51.366;12.348;2022-10-26T11:51:30;18.00;99.90
18191;DHT22;47004;51.366;12.348;2022-10-26T11:53:36;18.10;99.90
18191;DHT22;47004;51.366;12.348;2022-10-26T11:55:39;18.10;99.90
18191;DHT22;47004;51.366;12.348;2022-10-26T11:57:42;18.10;99.90
18191;DHT22;47004;51.366;12.348;2022-10-26T11:59:49;18.20;99.90
18191;DHT22;47004;51.366;12.348;2022-10-26T12:01:54;18.20;99.90
18191;DHT22;47004;51.366;12.348;2022-10-26T12:04:00;18.20;99.90
18191;DHT22;47004;51.366;12.348;2022-10-26T12:06:03;18.20;99.90
18191;DHT22;47004;51.366;12.348;2022-10-26T12:08:11;18.20;99.90
18191;DHT22;47004;51.366;12.348;2022-10-26T12:10:23;18.20;99.90
18191;DHT22;47004;51.366;12.348;2022-10-26T12:12:31;18.20;99.90
18191;DHT22;47004;51.366;12.348;2022-10-26T12:14:40;18.20;99.90
18191;DHT22;47004;51.366;12.348;2022-10-26T12:16:49;18.20;99.90
18191;DHT22;47004;51.366;12.348;2022-10-26T12:18:57;18.10;99.90
18191;DHT22;47004;51.366;12.348;2022-10-26T12:21:00;18.10;99.90
18191;DHT22;47004;51.366;12.348;2022-10-26T12:23:03;18.00;99.90
18191;DHT22;47004;51.366;12.348;2022-10-26T12:25:18;18.00;99.90
18191;DHT22;47004;51.366;12.348;2022-10-26T12:27:32;17.90;99.90
18191;DHT22;47004;51.366;12.348;2022-10-26T12:30:13;17.90;99.90
18191;DHT22;47004;51.366;12.348;2022-10-26T12:32:51;17.90;99.90
18191;DHT22;47004;51.366;12.348;2022-10-26T12:34:58;17.90;99.90
18191;DHT22;47004;51.366;12.348;2022-10-26T12:37:21;17.90;99.90
18191;DHT22;47004;51.366;12.348;2022-10-26T12:39:29;17.90;99.90
18191;DHT22;47004;51.366;12.348;2022-10-26T12:41:36;17.90;99.90
18191;DHT22;47004;51.366;12.348;2022-10-26T12:43:40;17.90;99.90
18191;DHT22;47004;51.366;12.348;2022-10-26T12:45:43;17.80;99.90
18191;DHT22;47004;51.366;12.348;2022-10-26T12:48:03;17.80;99.90
18191;DHT22;47004;51.366;12.348;2022-10-26T12:50:21;17.80;99.90
18191;DHT22;47004;51.366;12.348;2022-10-26T12:52:48;17.80;99.90
18191;DHT22;47004;51.366;12.348;2022-10-26T12:57:30;17.90;99.90
18191;DHT22;47004;51.366;12.348;2022-10-26T12:59:40;18.00;99.90
18191;DHT22;47004;51.366;12.348;2022-10-26T13:01:56;18.00;99.90
18191;DHT22;47004;51.366;12.348;2022-10-26T13:04:12;18.20;99.90
18191;DHT22;47004;51.366;12.348;2022-10-26T13:06:36;18.30;99.90
18191;DHT22;47004;51.366;12.348;2022-10-26T13:08:42;18.40;99.90
18191;DHT22;47004;51.366;12.348;2022-10-26T13:11:00;18.70;99.90
18191;DHT22;47004;51.366;12.348;2022-10-26T13:13:05;18.80;99.90
18191;DHT22;47004;51.366;12.348;2022-10-26T13:15:20;19.00;99.90
18191;DHT22;47004;51.366;12.348;2022-10-26T13:17:24;19.20;99.90
18191;DHT22;47004;51.366;12.348;2022-10-26T13:19:31;19.40;99.90